Time;durP1;ratioP1;P1;durP2;ratioP2;P2;SDS_P1;SDS_P2;PMS_P1;PMS_P2;Temp;Humidity;BMP_temperature;BMP_pressure;BME280_temperature;BME280_humidity;BME280_pressure;Samples;Min_cycle;Max_cycle;Signal;HPM_P1;HPM_P2
2022/09/30 00:01:04;;;;;;;21.08;11.82;;;9.40;99.90;;;;;;5031698;28;20030;-31
2022/09/30 00:03:30;;;;;;;24.38;12.13;;;9.40;99.90;;;;;;5030846;28;20030;-32
2022/09/30 00:06:00;;;;;;;29.80;14.68;;;9.30;99.90;;;;;;5027762;28;20660;-34
2022/09/30 00:08:26;;;;;;;22.73;9.98;;;9.30;99.90;;;;;;5033439;28;20104;-32
2022/09/30 00:11:03;;;;;;;14.98;8.73;;;9.30;99.90;;;;;;5031956;28;20063;-35
2022/09/30 00:13:33;;;;;;;13.25;7.80;;;9.20;99.90;;;;;;5021964;28;20457;-34
2022/09/30 00:15:59;;;;;;;19.63;11.13;;;9.20;99.90;;;;;;5028498;28;20549;-32
2022/09/30 00:18:25;;;;;;;16.13;9.98;;;9.20;99.90;;;;;;5032018;28;20343;-31
2022/09/30 00:20:52;;;;;;;31.30;13.27;;;9.10;99.90;;;;;;5030402;28;20046;-35
2022/09/30 00:23:18;;;;;;;27.42;13.63;;;9.10;99.90;;;;;;5034029;28;20029;-31
2022/09/30 00:25:43;;;;;;;20.02;10.68;;;9.10;99.90;;;;;;5024284;28;20109;-37
2022/09/30 00:28:09;;;;;;;15.80;9.88;;;9.10;99.90;;;;;;5033603;28;20037;-36
2022/09/30 00:30:35;;;;;;;66.80;10.63;;;9.10;99.90;;;;;;5027813;28;20033;-31
2022/09/30 00:33:00;;;;;;;15.85;9.18;;;9.10;99.90;;;;;;5028061;28;20273;-34
2022/09/30 00:35:26;;;;;;;10.32;7.75;;;9.10;99.90;;;;;;5032506;28;20029;-31
2022/09/30 00:37:53;;;;;;;11.80;7.20;;;9.20;99.90;;;;;;5030503;28;20032;-36
2022/09/30 00:40:19;;;;;;;9.70;6.50;;;9.20;99.90;;;;;;5036934;28;20305;-30
2022/09/30 00:42:45;;;;;;;52.75;9.52;;;9.20;99.90;;;;;;5030993;28;20033;-36
2022/09/30 00:45:12;;;;;;;63.78;11.88;;;9.10;99.90;;;;;;5028515;28;20028;-31
2022/09/30 00:47:43;;;;;;;32.55;9.05;;;8.90;99.90;;;;;;5023250;28;20034;-31
2022/09/30 00:50:16;;;;;;;49.67;9.05;;;8.80;99.90;;;;;;5035784;28;20584;-34
2022/09/30 00:52:44;;;;;;;58.20;10.32;;;8.80;99.90;;;;;;5031144;28;20034;-35
2022/09/30 00:55:44;;;;;;;31.38;8.48;;;8.80;99.90;;;;;;5028286;28;21164;-31
2022/09/30 00:58:14;;;;;;;24.75;7.35;;;8.80;99.90;;;;;;5039538;28;20059;-36
2022/09/30 01:00:40;;;;;;;25.83;7.88;;;8.90;99.90;;;;;;5031944;28;20065;-33
2022/09/30 01:03:06;;;;;;;15.38;6.95;;;8.90;99.90;;;;;;5037387;28;20033;-34
2022/09/30 01:05:33;;;;;;;54.60;9.75;;;8.90;99.90;;;;;;5031226;28;20029;-31
2022/09/30 01:08:02;;;;;;;44.47;9.00;;;8.90;99.90;;;;;;5029275;28;20064;-35
2022/09/30 01:10:28;;;;;;;21.02;7.15;;;8.90;99.90;;;;;;5028777;28;20029;-34
2022/09/30 01:12:54;;;;;;;34.80;7.85;;;8.90;99.90;;;;;;5029577;28;20129;-34
2022/09/30 01:15:29;;;;;;;25.58;8.20;;;8.90;99.90;;;;;;5032712;28;20025;-31
2022/09/30 01:18:20;;;;;;;107.68;14.10;;;9.00;99.90;;;;;;5021136;28;20041;-34
2022/09/30 01:20:52;;;;;;;119.32;14.68;;;8.90;99.90;;;;;;5028099;28;20073;-31
2022/09/30 01:23:29;;;;;;;13.30;7.20;;;8.80;99.90;;;;;;5031589;28;20040;-32
2022/09/30 01:26:20;;;;;;;62.42;11.38;;;8.80;99.90;;;;;;5030541;28;20053;-31
2022/09/30 01:28:57;;;;;;;32.97;9.50;;;8.80;99.90;;;;;;5026454;28;20578;-35
2022/09/30 01:31:41;;;;;;;56.87;12.87;;;8.80;99.90;;;;;;5034330;28;20033;-31
2022/09/30 01:34:12;;;;;;;10.85;8.00;;;8.90;99.90;;;;;;5034995;28;20320;-30
2022/09/30 01:36:44;;;;;;;85.70;14.27;;;8.70;99.90;;;;;;5033676;28;20034;-33
2022/09/30 01:39:29;;;;;;;178.07;23.85;;;8.80;99.90;;;;;;5026365;28;20028;-33
2022/09/30 01:42:00;;;;;;;55.38;15.32;;;8.70;99.90;;;;;;5026603;28;20063;-32
2022/09/30 01:44:52;;;;;;;12.38;7.18;;;8.60;99.90;;;;;;5025049;28;20155;-31
2022/09/30 01:47:28;;;;;;;12.52;7.05;;;8.70;99.90;;;;;;5026323;28;20533;-32
2022/09/30 01:50:07;;;;;;;25.00;8.13;;;8.80;99.90;;;;;;5025681;28;20082;-31
2022/09/30 01:52:43;;;;;;;20.75;7.35;;;8.80;99.90;;;;;;5033362;28;20021;-30
2022/09/30 01:55:15;;;;;;;30.08;7.72;;;8.90;99.90;;;;;;5034178;28;20032;-32
2022/09/30 01:57:57;;;;;;;9.50;6.80;;;8.90;99.90;;;;;;5024522;28;20031;-33
2022/09/30 02:00:24;;;;;;;9.65;6.80;;;8.90;99.90;;;;;;5031150;28;20034;-32
2022/09/30 02:02:57;;;;;;;9.40;6.53;;;9.00;99.90;;;;;;5030044;28;20080;-31
2022/09/30 02:05:39;;;;;;;8.85;6.00;;;9.00;99.90;;;;;;5030999;28;20482;-31
2022/09/30 02:08:15;;;;;;;13.85;6.47;;;9.00;99.90;;;;;;5028677;28;20179;-31
2022/09/30 02:10:59;;;;;;;37.58;7.75;;;9.00;99.90;;;;;;5034746;28;20037;-32
2022/09/30 02:13:42;;;;;;;7.55;6.00;;;9.00;99.90;;;;;;5027057;28;20603;-31
2022/09/30 02:16:13;;;;;;;56.17;9.32;;;9.00;99.90;;;;;;5029344;28;20026;-32
2022/09/30 02:18:43;;;;;;;28.70;8.32;;;8.90;99.90;;;;;;5035702;28;20029;-32
2022/09/30 02:21:14;;;;;;;11.00;6.50;;;8.70;99.90;;;;;;5027492;28;20096;-31
2022/09/30 02:23:42;;;;;;;57.25;9.77;;;8.80;99.90;;;;;;5032620;28;20043;-31
2022/09/30 02:26:17;;;;;;;22.92;7.93;;;8.80;99.90;;;;;;5029872;28;20075;-31
2022/09/30 02:29:04;;;;;;;44.50;8.63;;;8.60;99.90;;;;;;5024519;28;20128;-34
2022/09/30 02:31:33;;;;;;;19.65;7.45;;;8.60;99.90;;;;;;5027724;28;20073;-31
2022/09/30 02:34:07;;;;;;;32.80;8.25;;;8.70;99.90;;;;;;5031669;28;20068;-38
2022/09/30 02:36:47;;;;;;;30.30;8.75;;;8.60;99.90;;;;;;5027533;28;20030;-32
2022/09/30 02:39:28;;;;;;;45.17;10.43;;;8.60;99.90;;;;;;5028062;28;20089;-32
2022/09/30 02:42:01;;;;;;;9.25;6.50;;;8.50;99.90;;;;;;5032703;28;20029;-31
2022/09/30 02:44:27;;;;;;;8.98;5.88;;;8.50;99.90;;;;;;5029764;28;20144;-31
2022/09/30 02:47:10;;;;;;;7.90;5.75;;;8.60;99.90;;;;;;5024532;28;20093;-36
2022/09/30 02:49:47;;;;;;;7.32;5.72;;;8.70;99.90;;;;;;5026092;28;20037;-32
2022/09/30 02:52:25;;;;;;;14.48;6.93;;;8.80;99.90;;;;;;5027294;28;20040;-35
2022/09/30 02:55:00;;;;;;;17.65;6.00;;;8.80;99.90;;;;;;5030979;28;20041;-35
2022/09/30 02:57:46;;;;;;;11.98;6.65;;;8.80;99.90;;;;;;5034550;28;20029;-31
2022/09/30 03:00:12;;;;;;;14.43;6.82;;;8.80;99.90;;;;;;5039645;28;20021;-33
2022/09/30 03:02:39;;;;;;;10.95;6.43;;;8.80;99.90;;;;;;5029895;28;20640;-32
2022/09/30 03:05:05;;;;;;;19.38;6.90;;;8.80;99.90;;;;;;5033018;28;20033;-31
2022/09/30 03:07:30;;;;;;;9.93;6.25;;;8.80;99.90;;;;;;5028584;28;20045;-34
2022/09/30 03:09:59;;;;;;;18.70;5.88;;;8.70;99.90;;;;;;5028028;28;20025;-31
2022/09/30 03:12:31;;;;;;;16.55;7.05;;;8.70;99.90;;;;;;5029738;28;20025;-31
2022/09/30 03:15:12;;;;;;;9.85;6.13;;;8.70;99.90;;;;;;5025576;28;20029;-33
2022/09/30 03:17:43;;;;;;;11.45;6.80;;;8.70;99.90;;;;;;5032127;28;20403;-31
2022/09/30 03:20:30;;;;;;;10.45;6.75;;;8.70;99.90;;;;;;5022599;28;20081;-37
2022/09/30 03:23:17;;;;;;;8.23;5.82;;;8.70;99.90;;;;;;5029289;28;20027;-31
2022/09/30 03:25:51;;;;;;;9.63;6.27;;;8.70;99.90;;;;;;5025149;28;20025;-32
2022/09/30 03:28:23;;;;;;;8.23;5.72;;;8.70;99.90;;;;;;5028054;28;20021;-33
2022/09/30 03:31:07;;;;;;;8.55;6.20;;;8.70;99.90;;;;;;5028899;28;20037;-32
2022/09/30 03:34:08;;;;;;;21.10;7.35;;;8.80;99.90;;;;;;5032081;28;20430;-31
2022/09/30 03:36:41;;;;;;;10.65;6.45;;;8.80;99.90;;;;;;5027012;28;20059;-34
2022/09/30 03:39:22;;;;;;;8.45;5.90;;;8.80;99.90;;;;;;5025229;28;20097;-34
2022/09/30 03:42:16;;;;;;;9.43;5.78;;;8.70;99.90;;;;;;5026093;28;20027;-34
2022/09/30 03:45:22;;;;;;;13.45;6.65;;;8.70;99.90;;;;;;5018119;28;20022;-34
2022/09/30 03:47:52;;;;;;;7.63;5.88;;;8.70;99.90;;;;;;5025607;28;20030;-33
2022/09/30 03:50:22;;;;;;;8.48;5.60;;;8.70;99.90;;;;;;5023041;28;20059;-35
2022/09/30 03:52:49;;;;;;;9.05;6.30;;;8.80;99.90;;;;;;5027549;28;20026;-34
2022/09/30 03:55:15;;;;;;;10.00;6.13;;;8.80;99.90;;;;;;5027094;28;20061;-34
2022/09/30 03:57:43;;;;;;;11.02;6.13;;;8.80;99.90;;;;;;5029276;28;20026;-32
2022/09/30 04:00:11;;;;;;;10.15;6.60;;;8.80;99.90;;;;;;5026867;28;20025;-33
2022/09/30 04:02:37;;;;;;;10.05;6.47;;;8.90;99.90;;;;;;5027299;28;20100;-31
2022/09/30 04:05:04;;;;;;;10.65;6.25;;;8.90;99.90;;;;;;5030245;28;20426;-33
2022/09/30 04:07:30;;;;;;;10.98;6.18;;;8.90;99.90;;;;;;5025744;28;20029;-32
2022/09/30 04:09:55;;;;;;;10.35;6.05;;;8.90;99.90;;;;;;5018112;28;20034;-35
2022/09/30 04:12:21;;;;;;;17.42;6.78;;;8.90;99.90;;;;;;5022359;28;20104;-36
2022/09/30 04:14:47;;;;;;;10.77;6.90;;;8.90;99.90;;;;;;5029814;28;20040;-31
2022/09/30 04:17:14;;;;;;;9.48;6.50;;;8.90;99.90;;;;;;5023113;28;20060;-34
2022/09/30 04:19:39;;;;;;;10.68;6.43;;;8.90;99.90;;;;;;5026975;28;20036;-36
2022/09/30 04:22:06;;;;;;;11.32;6.70;;;8.90;99.90;;;;;;5025047;28;20029;-31
2022/09/30 04:24:32;;;;;;;77.85;13.05;;;8.90;99.90;;;;;;5024229;28;20028;-37
2022/09/30 04:26:58;;;;;;;10.90;7.43;;;8.90;99.90;;;;;;5031772;28;20026;-33
2022/09/30 04:29:23;;;;;;;9.35;6.60;;;8.90;99.90;;;;;;5027735;28;20057;-34
2022/09/30 04:31:49;;;;;;;11.88;6.88;;;8.90;99.90;;;;;;5023252;28;20076;-33
2022/09/30 04:34:15;;;;;;;10.95;6.47;;;8.90;99.90;;;;;;5030385;28;20510;-32
2022/09/30 04:36:41;;;;;;;23.08;7.72;;;8.90;99.90;;;;;;5035951;28;20038;-33
2022/09/30 04:39:06;;;;;;;16.35;7.28;;;8.90;99.90;;;;;;5028446;28;20353;-31
2022/09/30 04:41:33;;;;;;;20.63;9.38;;;8.70;99.90;;;;;;5024488;28;20041;-33
2022/09/30 04:43:59;;;;;;;54.05;12.25;;;8.70;99.90;;;;;;5028057;28;20025;-30
2022/09/30 04:46:25;;;;;;;30.15;7.85;;;8.70;99.90;;;;;;5022680;28;20147;-32
2022/09/30 04:48:50;;;;;;;24.27;8.65;;;8.80;99.90;;;;;;5028073;28;20030;-31
2022/09/30 04:51:20;;;;;;;11.93;6.63;;;8.70;99.90;;;;;;5022966;28;20044;-31
2022/09/30 04:53:47;;;;;;;30.95;8.02;;;8.70;99.90;;;;;;5029229;28;20475;-32
2022/09/30 04:56:15;;;;;;;15.82;7.43;;;8.70;99.90;;;;;;5026646;28;20022;-35
2022/09/30 04:58:41;;;;;;;10.82;6.15;;;8.60;99.90;;;;;;5028900;28;20029;-38
2022/09/30 05:01:10;;;;;;;12.55;7.32;;;8.70;99.90;;;;;;5021656;28;20029;-31
2022/09/30 05:03:36;;;;;;;;;;;8.70;99.90;;;;;;5024009;28;20531;-35
2022/09/30 05:06:02;;;;;;;28.23;7.70;;;8.60;99.90;;;;;;5022106;28;19999;-33
2022/09/30 05:08:28;;;;;;;28.60;7.45;;;8.60;99.90;;;;;;5022448;28;20033;-31
2022/09/30 05:10:56;;;;;;;23.92;8.88;;;8.70;99.90;;;;;;5022694;28;20026;-32
2022/09/30 05:13:25;;;;;;;15.82;8.15;;;8.70;99.90;;;;;;5027946;28;20022;-36
2022/09/30 05:15:51;;;;;;;43.35;10.07;;;8.70;99.90;;;;;;5028062;28;20318;-32
2022/09/30 05:18:20;;;;;;;15.55;7.88;;;8.60;99.90;;;;;;5031586;28;20064;-36
2022/09/30 05:20:49;;;;;;;16.15;8.93;;;8.70;99.90;;;;;;5029247;28;20042;-32
2022/09/30 05:23:16;;;;;;;16.73;8.48;;;8.60;99.90;;;;;;5033926;28;20147;-31
2022/09/30 05:25:41;;;;;;;15.60;7.63;;;8.70;99.90;;;;;;5025967;28;20071;-36
2022/09/30 05:28:07;;;;;;;17.27;8.85;;;8.70;99.90;;;;;;5034492;28;20387;-31
2022/09/30 05:30:33;;;;;;;17.40;9.30;;;8.70;99.90;;;;;;5033170;28;20037;-33
2022/09/30 05:32:58;;;;;;;18.83;8.57;;;8.80;99.90;;;;;;5031770;28;20028;-31
2022/09/30 05:35:24;;;;;;;16.90;7.97;;;8.70;99.90;;;;;;5028270;28;20037;-33
2022/09/30 05:37:49;;;;;;;17.45;8.13;;;8.70;99.90;;;;;;5022514;28;20559;-33
2022/09/30 05:40:15;;;;;;;16.83;7.18;;;8.70;99.90;;;;;;5031503;28;20395;-35
2022/09/30 05:42:42;;;;;;;32.55;9.27;;;8.80;99.90;;;;;;5020433;28;20036;-36
2022/09/30 05:45:08;;;;;;;15.00;6.97;;;8.70;99.90;;;;;;5023572;28;20043;-31
2022/09/30 05:47:33;;;;;;;14.02;7.25;;;8.70;99.90;;;;;;5023046;28;20544;-34
2022/09/30 05:49:59;;;;;;;14.90;7.68;;;8.60;99.90;;;;;;5021691;28;20045;-33
2022/09/30 05:52:25;;;;;;;14.23;6.90;;;8.70;99.90;;;;;;5023750;28;20797;-34
2022/09/30 05:54:50;;;;;;;33.28;9.50;;;8.70;99.90;;;;;;5019149;28;20040;-31
2022/09/30 05:57:16;;;;;;;17.50;7.93;;;8.60;99.90;;;;;;5027584;28;20033;-35
2022/09/30 05:59:42;;;;;;;17.35;7.22;;;8.60;99.90;;;;;;5023923;28;20026;-35
2022/09/30 06:02:11;;;;;;;20.02;8.30;;;8.60;99.90;;;;;;5019843;28;20069;-35
2022/09/30 06:04:37;;;;;;;18.83;7.80;;;8.70;99.90;;;;;;5024781;28;20021;-31
2022/09/30 06:07:02;;;;;;;18.88;8.63;;;8.70;99.90;;;;;;5026161;28;20040;-34
2022/09/30 06:09:28;;;;;;;18.45;8.48;;;8.70;99.90;;;;;;5023337;28;20378;-37
2022/09/30 06:11:56;;;;;;;21.95;7.70;;;8.70;99.90;;;;;;5021446;28;20026;-34
2022/09/30 06:14:22;;;;;;;21.05;8.77;;;8.70;99.90;;;;;;5027417;28;20029;-31
2022/09/30 06:16:48;;;;;;;21.20;8.68;;;8.70;99.90;;;;;;5026835;28;20461;-31
2022/09/30 06:19:14;;;;;;;22.25;9.35;;;8.80;99.90;;;;;;5024037;28;20025;-33
2022/09/30 06:21:39;;;;;;;20.42;8.68;;;8.80;99.90;;;;;;5025744;28;20053;-34
2022/09/30 06:24:07;;;;;;;20.67;8.07;;;8.80;99.90;;;;;;5028325;28;20025;-32
2022/09/30 06:26:33;;;;;;;21.20;9.40;;;8.90;99.90;;;;;;5027130;28;20088;-34
2022/09/30 06:28:58;;;;;;;21.35;8.63;;;8.90;99.90;;;;;;5025895;28;20129;-35
2022/09/30 06:31:24;;;;;;;22.50;9.90;;;9.00;99.90;;;;;;5028743;28;20041;-34
2022/09/30 06:33:53;;;;;;;23.40;10.38;;;9.00;99.90;;;;;;5031172;28;20037;-34
2022/09/30 06:36:18;;;;;;;19.73;9.35;;;9.00;99.90;;;;;;5027932;28;20048;-32
2022/09/30 06:38:48;;;;;;;25.63;9.57;;;9.10;99.90;;;;;;5029214;28;20029;-34
2022/09/30 06:41:14;;;;;;;20.63;9.45;;;9.10;99.90;;;;;;5031528;28;20092;-36
2022/09/30 06:43:40;;;;;;;23.63;9.25;;;9.10;99.90;;;;;;5027667;28;20029;-32
2022/09/30 06:46:06;;;;;;;21.00;9.70;;;9.10;99.90;;;;;;5030319;28;20044;-36
2022/09/30 06:48:31;;;;;;;24.55;10.20;;;9.20;99.90;;;;;;5029027;28;20021;-36
2022/09/30 06:50:57;;;;;;;27.42;10.73;;;9.10;99.90;;;;;;5027766;28;20482;-37
2022/09/30 06:53:23;;;;;;;22.67;9.98;;;9.00;99.90;;;;;;5026455;28;20025;-35
2022/09/30 06:55:55;;;;;;;28.10;10.90;;;9.00;99.90;;;;;;5025969;28;20040;-32
2022/09/30 06:58:23;;;;;;;29.80;11.88;;;9.00;99.90;;;;;;5024154;28;20061;-37
2022/09/30 07:01:00;;;;;;;25.10;11.02;;;9.10;99.90;;;;;;5023171;28;20033;-34
2022/09/30 07:03:28;;;;;;;26.27;12.00;;;9.10;99.90;;;;;;5023241;28;20485;-36
2022/09/30 07:05:56;;;;;;;23.13;11.20;;;9.10;99.90;;;;;;5023912;28;20025;-34
2022/09/30 07:08:24;;;;;;;26.13;12.37;;;9.00;99.90;;;;;;5023816;28;20033;-34
2022/09/30 07:10:50;;;;;;;29.35;12.40;;;9.10;99.90;;;;;;5022907;28;20283;-31
2022/09/30 07:13:16;;;;;;;30.13;12.05;;;9.00;99.90;;;;;;5023374;28;20033;-31
2022/09/30 07:15:41;;;;;;;23.98;11.93;;;8.90;99.90;;;;;;5023166;28;20269;-31
2022/09/30 07:18:07;;;;;;;23.33;10.40;;;8.90;99.90;;;;;;5024016;28;20064;-31
2022/09/30 07:20:33;;;;;;;25.67;12.40;;;8.90;99.90;;;;;;5022266;28;20400;-33
2022/09/30 07:22:59;;;;;;;30.13;12.18;;;8.90;99.90;;;;;;5021880;28;20307;-31
2022/09/30 07:25:24;;;;;;;28.90;12.88;;;8.90;99.90;;;;;;5022470;28;20093;-34
2022/09/30 07:27:50;;;;;;;30.75;12.98;;;8.90;99.90;;;;;;5021537;28;20039;-36
2022/09/30 07:30:17;;;;;;;23.92;11.35;;;9.00;99.90;;;;;;5024069;28;20052;-36
2022/09/30 07:32:42;;;;;;;26.45;12.45;;;9.00;99.90;;;;;;5024846;28;20036;-30
2022/09/30 07:35:08;;;;;;;26.13;11.23;;;9.10;99.90;;;;;;5023799;28;20025;-37
2022/09/30 07:37:35;;;;;;;28.15;12.75;;;9.30;99.90;;;;;;5024479;28;20030;-34
2022/09/30 07:40:06;;;;;;;31.58;12.35;;;9.30;99.90;;;;;;5025715;28;21320;-32
2022/09/30 07:42:32;;;;;;;28.95;12.65;;;9.30;99.90;;;;;;5023994;28;20086;-31
2022/09/30 07:44:58;;;;;;;28.35;11.65;;;9.30;99.90;;;;;;5023310;28;20450;-31
2022/09/30 07:47:23;;;;;;;30.20;12.38;;;9.30;99.90;;;;;;5022821;28;20140;-31
2022/09/30 07:49:49;;;;;;;28.00;12.35;;;9.30;99.90;;;;;;5023360;28;20061;-33
2022/09/30 07:52:15;;;;;;;22.67;10.70;;;9.30;99.90;;;;;;5023266;28;20030;-34
2022/09/30 07:54:41;;;;;;;29.02;11.65;;;9.30;99.90;;;;;;5020964;28;20041;-35
2022/09/30 07:57:09;;;;;;;24.52;11.38;;;9.30;99.90;;;;;;5024866;28;20040;-33
2022/09/30 07:59:38;;;;;;;25.50;12.07;;;9.20;99.90;;;;;;5022786;28;20124;-33
2022/09/30 08:02:05;;;;;;;32.53;12.95;;;9.30;99.90;;;;;;5022549;28;20029;-35
2022/09/30 08:04:30;;;;;;;25.05;10.60;;;9.20;99.90;;;;;;5023982;28;20032;-34
2022/09/30 08:07:00;;;;;;;26.17;11.27;;;9.20;99.90;;;;;;5022904;28;20021;-33
2022/09/30 08:09:27;;;;;;;28.52;11.68;;;9.20;99.90;;;;;;5024212;28;20101;-33
2022/09/30 08:11:53;;;;;;;27.03;11.67;;;9.20;99.90;;;;;;5022399;28;20509;-37
2022/09/30 08:14:24;;;;;;;25.00;12.95;;;9.20;99.90;;;;;;5024581;28;20029;-32
2022/09/30 08:16:50;;;;;;;24.80;11.25;;;9.30;99.90;;;;;;5021945;28;20057;-34
2022/09/30 08:19:21;;;;;;;26.10;11.30;;;9.30;99.90;;;;;;5023099;28;20068;-37
2022/09/30 08:21:47;;;;;;;27.30;11.88;;;9.40;99.90;;;;;;5023289;28;20058;-34
2022/09/30 08:24:13;;;;;;;24.20;10.65;;;9.40;99.90;;;;;;5024782;28;20025;-31
2022/09/30 08:26:40;;;;;;;26.30;11.32;;;9.50;99.90;;;;;;5020303;28;20111;-35
2022/09/30 08:29:06;;;;;;;31.50;12.32;;;9.50;99.90;;;;;;5023793;28;20036;-33
2022/09/30 08:31:32;;;;;;;25.33;11.80;;;9.40;99.90;;;;;;5020325;28;20064;-40
2022/09/30 08:33:58;;;;;;;27.65;12.10;;;9.40;99.90;;;;;;5022870;28;20107;-33
2022/09/30 08:36:26;;;;;;;25.92;11.40;;;9.40;99.90;;;;;;5020515;28;20063;-36
2022/09/30 08:38:52;;;;;;;31.43;12.57;;;9.40;99.90;;;;;;5022593;28;20022;-33
2022/09/30 08:42:02;;;;;;;25.88;11.80;;;9.40;99.90;;;;;;5022256;28;20060;-32
2022/09/30 08:44:44;;;;;;;25.45;10.25;;;9.40;99.90;;;;;;5021846;28;20180;-31
2022/09/30 08:47:36;;;;;;;27.20;11.93;;;9.40;99.90;;;;;;5022297;28;20045;-32
2022/09/30 08:50:21;;;;;;;22.40;10.52;;;9.50;99.90;;;;;;5023116;28;20034;-34
2022/09/30 08:52:51;;;;;;;24.83;11.15;;;9.60;99.90;;;;;;5027282;28;20598;-31
2022/09/30 08:55:24;;;;;;;23.40;10.75;;;9.60;99.90;;;;;;5026804;28;20071;-36
2022/09/30 08:57:52;;;;;;;19.85;10.18;;;9.70;99.90;;;;;;5025146;28;20316;-34
2022/09/30 09:00:18;;;;;;;23.00;10.20;;;9.60;99.90;;;;;;5024300;28;20022;-32
2022/09/30 09:02:49;;;;;;;24.27;11.52;;;9.60;99.90;;;;;;5022649;28;20061;-31
2022/09/30 09:05:40;;;;;;;19.90;10.35;;;9.70;99.90;;;;;;5025410;28;20041;-34
2022/09/30 09:08:27;;;;;;;22.00;10.25;;;9.80;99.90;;;;;;5034112;28;20030;-36
2022/09/30 09:11:05;;;;;;;21.85;10.93;;;9.80;99.90;;;;;;5023171;28;20044;-34
2022/09/30 09:13:39;;;;;;;24.15;10.80;;;9.90;99.90;;;;;;5027797;28;20036;-33
2022/09/30 09:16:26;;;;;;;18.88;9.43;;;9.90;99.90;;;;;;5026882;28;20136;-33
2022/09/30 09:19:09;;;;;;;18.30;9.60;;;10.00;99.90;;;;;;5025526;28;20368;-31
2022/09/30 09:22:01;;;;;;;20.17;9.93;;;10.00;99.90;;;;;;5026538;28;20062;-35
2022/09/30 09:24:31;;;;;;;21.48;11.75;;;10.10;99.90;;;;;;5024504;28;20061;-31
2022/09/30 09:26:58;;;;;;;18.50;8.82;;;10.20;99.90;;;;;;5027475;28;20037;-36
2022/09/30 09:29:47;;;;;;;21.13;9.80;;;10.30;99.90;;;;;;5026946;28;20228;-33
2022/09/30 09:32:17;;;;;;;23.10;11.10;;;10.40;99.90;;;;;;5024540;28;20053;-33
2022/09/30 09:34:52;;;;;;;19.17;9.82;;;10.40;99.90;;;;;;5026477;28;20038;-35
2022/09/30 09:41:04;;;;;;;14.82;8.60;;;10.40;99.90;;;;;;5031353;28;20056;-33
2022/09/30 09:43:47;;;;;;;19.50;10.18;;;10.40;99.90;;;;;;4991737;28;20041;-32
2022/09/30 09:46:12;;;;;;;17.90;9.77;;;10.30;99.90;;;;;;5036672;28;20563;-32
2022/09/30 09:48:38;;;;;;;17.88;9.48;;;10.30;99.90;;;;;;5034566;28;20025;-32
2022/09/30 09:51:33;;;;;;;23.58;10.27;;;10.30;99.90;;;;;;5031855;28;20092;-31
2022/09/30 09:54:00;;;;;;;19.77;10.10;;;10.40;99.90;;;;;;5028873;28;20026;-33
2022/09/30 09:56:29;;;;;;;17.50;9.88;;;10.40;99.90;;;;;;5029197;28;20033;-33
2022/09/30 09:59:12;;;;;;;21.45;11.02;;;10.40;99.90;;;;;;5025074;28;20025;-34
2022/09/30 10:01:43;;;;;;;18.33;9.65;;;10.50;99.90;;;;;;5023477;28;20045;-36
2022/09/30 10:04:14;;;;;;;18.88;10.20;;;10.40;99.90;;;;;;5027079;28;20130;-32
2022/09/30 10:06:46;;;;;;;17.95;10.23;;;10.60;99.90;;;;;;5028284;28;20065;-34
2022/09/30 10:09:32;;;;;;;20.40;10.52;;;10.60;99.90;;;;;;5025262;28;20033;-31
2022/09/30 10:12:07;;;;;;;16.40;9.98;;;10.70;99.90;;;;;;5026111;28;20080;-34
2022/09/30 10:14:52;;;;;;;17.98;10.27;;;10.70;99.90;;;;;;5025856;28;20490;-33
2022/09/30 10:17:36;;;;;;;16.55;9.18;;;10.80;99.90;;;;;;5024698;28;20034;-34
2022/09/30 10:20:14;;;;;;;17.55;10.60;;;10.80;99.90;;;;;;5026618;28;20084;-32
2022/09/30 10:22:39;;;;;;;16.65;9.02;;;10.90;99.90;;;;;;5027691;28;20056;-35
2022/09/30 10:25:20;;;;;;;17.50;10.18;;;11.00;99.90;;;;;;5028627;28;20065;-34
2022/09/30 10:27:56;;;;;;;15.07;9.23;;;11.10;99.90;;;;;;5025467;28;20025;-36
2022/09/30 10:30:37;;;;;;;15.02;8.57;;;11.10;99.90;;;;;;5025678;28;20033;-31
2022/09/30 10:33:09;;;;;;;16.80;9.85;;;11.20;99.90;;;;;;5027303;28;20029;-31
2022/09/30 10:35:49;;;;;;;14.05;8.50;;;11.20;99.90;;;;;;5029454;28;20037;-32
2022/09/30 10:38:15;;;;;;;19.58;9.38;;;11.10;99.90;;;;;;5029097;28;20052;-35
2022/09/30 10:40:49;;;;;;;17.00;9.40;;;11.10;99.90;;;;;;5027559;28;20033;-36
2022/09/30 10:43:43;;;;;;;13.60;8.43;;;11.10;99.90;;;;;;5027173;28;20025;-31
2022/09/30 10:46:10;;;;;;;12.57;7.63;;;11.00;99.90;;;;;;5025109;28;20634;-32
2022/09/30 10:48:38;;;;;;;15.63;8.50;;;10.90;99.90;;;;;;5028488;28;20036;-38
2022/09/30 10:51:20;;;;;;;13.88;7.60;;;11.00;99.90;;;;;;5027367;28;20029;-32
2022/09/30 10:53:45;;;;;;;14.98;7.88;;;11.10;99.90;;;;;;5027182;28;20025;-33
2022/09/30 10:56:11;;;;;;;14.55;8.60;;;11.20;99.90;;;;;;5027431;28;20030;-34
2022/09/30 10:58:49;;;;;;;13.05;7.68;;;11.20;99.90;;;;;;5026618;28;20079;-31
2022/09/30 11:01:24;;;;;;;12.60;7.55;;;11.20;99.90;;;;;;5025945;28;20215;-31
2022/09/30 11:04:15;;;;;;;13.60;8.10;;;11.20;99.90;;;;;;5028249;28;20120;-33
2022/09/30 11:06:43;;;;;;;13.45;7.65;;;11.30;99.90;;;;;;5017242;28;20065;-33
2022/09/30 11:09:20;;;;;;;13.57;7.72;;;11.40;99.90;;;;;;5029342;28;20018;-37
2022/09/30 11:11:54;;;;;;;15.98;7.60;;;11.50;99.90;;;;;;5027572;28;20043;-37
2022/09/30 11:14:46;;;;;;;11.00;7.75;;;11.60;99.90;;;;;;5029988;28;20490;-33
2022/09/30 11:17:28;;;;;;;13.77;7.63;;;11.70;99.90;;;;;;5029971;28;20055;-34
2022/09/30 11:20:18;;;;;;;13.90;7.88;;;11.60;99.90;;;;;;5026124;28;20109;-37
2022/09/30 11:22:55;;;;;;;11.00;7.55;;;11.70;99.90;;;;;;5023853;28;20037;-33
2022/09/30 11:25:55;;;;;;;13.02;8.35;;;11.70;99.90;;;;;;5025988;28;20577;-35
2022/09/30 11:28:35;;;;;;;12.65;8.07;;;11.70;99.90;;;;;;5027789;28;20152;-33
2022/09/30 11:31:35;;;;;;;11.02;7.85;;;11.90;99.90;;;;;;5026864;28;20045;-34
2022/09/30 11:34:23;;;;;;;13.25;8.13;;;11.90;99.90;;;;;;5030759;28;20490;-38
2022/09/30 11:37:18;;;;;;;14.17;9.60;;;11.90;99.90;;;;;;5025902;28;20330;-37
2022/09/30 11:39:53;;;;;;;10.75;7.88;;;11.90;99.90;;;;;;5015365;28;20280;-34
2022/09/30 11:42:27;;;;;;;15.48;11.63;;;11.90;99.90;;;;;;5027632;28;20044;-34
2022/09/30 11:45:33;;;;;;;12.68;9.30;;;12.00;99.90;;;;;;5026027;28;20257;-37
2022/09/30 11:48:17;;;;;;;13.38;9.20;;;11.80;99.90;;;;;;4966071;28;20137;-33
2022/09/30 11:51:15;;;;;;;12.95;8.48;;;11.70;99.90;;;;;;5025492;28;20017;-33
2022/09/30 11:53:40;;;;;;;;;;;11.70;99.90;;;;;;5007239;28;21254;-36
2022/09/30 11:56:15;;;;;;;12.40;8.40;;;11.70;99.90;;;;;;5027176;28;19913;-37
2022/09/30 11:58:46;;;;;;;12.35;8.68;;;11.80;99.90;;;;;;5026661;28;20035;-34
2022/09/30 12:01:36;;;;;;;14.43;9.68;;;11.90;99.90;;;;;;5026583;28;20597;-34
2022/09/30 12:04:21;;;;;;;12.88;9.35;;;12.10;99.90;;;;;;5026490;28;20033;-34
2022/09/30 12:06:56;;;;;;;13.38;9.95;;;12.10;99.90;;;;;;5029724;28;20013;-40
2022/09/30 12:09:33;;;;;;;12.02;8.88;;;12.10;99.90;;;;;;5026639;28;20041;-32
2022/09/30 12:12:01;;;;;;;14.27;9.43;;;12.20;99.90;;;;;;5027537;28;20032;-33
2022/09/30 12:14:48;;;;;;;12.85;10.00;;;12.20;99.90;;;;;;5028805;28;20284;-36
2022/09/30 12:17:32;;;;;;;16.17;10.27;;;12.30;99.90;;;;;;5027801;28;20034;-35
2022/09/30 12:20:15;;;;;;;13.18;9.60;;;12.40;99.90;;;;;;5030210;28;20323;-31
2022/09/30 12:22:44;;;;;;;13.27;9.23;;;12.40;99.90;;;;;;5027028;28;20026;-35
2022/09/30 12:25:24;;;;;;;12.65;9.18;;;12.40;99.90;;;;;;5026100;28;20167;-37
2022/09/30 12:30:15;;;;;;;13.38;9.20;;;12.40;99.90;;;;;;5025535;28;20135;-34
2022/09/30 12:30:49;;;;;;;14.07;10.38;;;12.50;99.90;;;;;;5024456;28;20156;-37
2022/09/30 12:33:33;;;;;;;13.18;9.82;;;12.60;99.90;;;;;;5026501;28;20034;-35
2022/09/30 12:36:27;;;;;;;13.63;9.32;;;12.80;99.90;;;;;;5026843;28;20034;-35
2022/09/30 12:39:05;;;;;;;13.90;9.70;;;12.70;99.90;;;;;;5026857;28;20057;-35
2022/09/30 12:41:47;;;;;;;13.00;9.75;;;12.60;99.90;;;;;;5027568;28;20033;-34
2022/09/30 12:44:31;;;;;;;12.75;8.98;;;12.40;99.90;;;;;;5027619;28;20874;-32
2022/09/30 12:47:27;;;;;;;12.63;9.10;;;12.50;99.90;;;;;;5027148;28;20033;-36
2022/09/30 12:49:57;;;;;;;11.73;8.65;;;12.70;99.90;;;;;;5028225;28;20025;-32
2022/09/30 12:52:24;;;;;;;16.77;8.73;;;12.70;99.90;;;;;;5025544;28;20067;-34
2022/09/30 12:55:00;;;;;;;13.88;8.75;;;12.80;99.90;;;;;;5028214;28;20033;-33
2022/09/30 12:57:35;;;;;;;12.75;8.10;;;12.90;99.90;;;;;;5041036;28;20414;-35
2022/09/30 13:00:13;;;;;;;13.75;8.65;;;13.00;99.90;;;;;;5024777;28;20021;-37
2022/09/30 13:02:42;;;;;;;13.50;8.80;;;13.00;99.90;;;;;;5023904;28;20495;-36
2022/09/30 13:05:26;;;;;;;12.77;9.02;;;13.00;99.90;;;;;;5028079;28;20026;-36
2022/09/30 13:08:04;;;;;;;12.45;8.60;;;12.70;99.90;;;;;;5025861;28;20033;-33
2022/09/30 13:10:32;;;;;;;11.80;8.63;;;12.60;99.90;;;;;;5027367;28;20071;-34
2022/09/30 13:13:09;;;;;;;12.98;9.10;;;12.50;99.90;;;;;;5026109;28;20030;-34
2022/09/30 13:15:39;;;;;;;13.10;8.63;;;12.50;99.90;;;;;;5029256;28;20158;-33